sensor_id;sensor_type;location;lat;lon;timestamp;P1;durP1;ratioP1;P2;durP2;ratioP2
31224;SDS011;17847;31.524;74.366;2023-07-22T00:00:59;40.88;;;31.38;;
31224;SDS011;17847;31.524;74.366;2023-07-22T00:03:28;36.45;;;28.67;;
31224;SDS011;17847;31.524;74.366;2023-07-22T00:08:35;18.60;;;16.63;;
31224;SDS011;17847;31.524;74.366;2023-07-22T00:11:05;12.10;;;11.00;;
31224;SDS011;17847;31.524;74.366;2023-07-22T00:13:36;10.85;;;9.48;;
31224;SDS011;17847;31.524;74.366;2023-07-22T00:16:05;9.65;;;8.40;;
31224;SDS011;17847;31.524;74.366;2023-07-22T00:18:36;8.80;;;7.95;;
31224;SDS011;17847;31.524;74.366;2023-07-22T00:21:05;8.60;;;7.60;;
31224;SDS011;17847;31.524;74.366;2023-07-22T00:23:35;7.90;;;7.20;;
31224;SDS011;17847;31.524;74.366;2023-07-22T00:26:04;7.97;;;7.25;;
31224;SDS011;17847;31.524;74.366;2023-07-22T00:28:34;8.20;;;7.40;;
31224;SDS011;17847;31.524;74.366;2023-07-22T00:31:03;8.15;;;6.88;;
31224;SDS011;17847;31.524;74.366;2023-07-22T00:33:33;7.40;;;6.68;;
31224;SDS011;17847;31.524;74.366;2023-07-22T00:36:03;7.03;;;6.10;;
31224;SDS011;17847;31.524;74.366;2023-07-22T00:38:33;6.72;;;6.07;;
31224;SDS011;17847;31.524;74.366;2023-07-22T00:41:02;6.30;;;5.70;;
31224;SDS011;17847;31.524;74.366;2023-07-22T00:46:04;5.50;;;5.00;;
31224;SDS011;17847;31.524;74.366;2023-07-22T00:48:34;6.43;;;5.82;;
31224;SDS011;17847;31.524;74.366;2023-07-22T00:51:04;6.15;;;5.55;;
31224;SDS011;17847;31.524;74.366;2023-07-22T00:53:33;6.20;;;5.60;;
31224;SDS011;17847;31.524;74.366;2023-07-22T00:56:04;8.30;;;6.13;;
31224;SDS011;17847;31.524;74.366;2023-07-22T00:58:34;6.30;;;5.70;;
31224;SDS011;17847;31.524;74.366;2023-07-22T01:01:03;6.32;;;5.72;;
31224;SDS011;17847;31.524;74.366;2023-07-22T01:03:33;6.95;;;6.25;;
31224;SDS011;17847;31.524;74.366;2023-07-22T01:06:02;8.07;;;6.78;;
31224;SDS011;17847;31.524;74.366;2023-07-22T01:08:32;8.85;;;8.00;;
31224;SDS011;17847;31.524;74.366;2023-07-22T01:11:02;10.95;;;9.02;;
31224;SDS011;17847;31.524;74.366;2023-07-22T01:13:32;12.77;;;11.20;;
31224;SDS011;17847;31.524;74.366;2023-07-22T01:16:02;12.23;;;11.02;;
31224;SDS011;17847;31.524;74.366;2023-07-22T01:18:32;22.23;;;16.67;;
31224;SDS011;17847;31.524;74.366;2023-07-22T01:21:03;26.25;;;20.17;;
31224;SDS011;17847;31.524;74.366;2023-07-22T01:23:35;30.63;;;23.65;;
31224;SDS011;17847;31.524;74.366;2023-07-22T01:26:06;33.67;;;25.73;;
31224;SDS011;17847;31.524;74.366;2023-07-22T01:28:35;30.92;;;25.08;;
31224;SDS011;17847;31.524;74.366;2023-07-22T01:31:05;29.98;;;24.25;;
31224;SDS011;17847;31.524;74.366;2023-07-22T01:33:34;30.00;;;23.00;;
31224;SDS011;17847;31.524;74.366;2023-07-22T01:36:04;29.17;;;23.35;;
31224;SDS011;17847;31.524;74.366;2023-07-22T01:38:37;26.45;;;21.30;;
31224;SDS011;17847;31.524;74.366;2023-07-22T01:41:07;22.80;;;20.05;;
31224;SDS011;17847;31.524;74.366;2023-07-22T01:43:37;19.40;;;17.30;;
31224;SDS011;17847;31.524;74.366;2023-07-22T01:46:06;19.92;;;17.80;;
31224;SDS011;17847;31.524;74.366;2023-07-22T01:48:36;24.23;;;17.52;;
31224;SDS011;17847;31.524;74.366;2023-07-22T01:51:05;18.05;;;15.95;;
31224;SDS011;17847;31.524;74.366;2023-07-22T01:53:35;19.30;;;15.95;;
31224;SDS011;17847;31.524;74.366;2023-07-22T01:56:04;18.77;;;15.65;;
31224;SDS011;17847;31.524;74.366;2023-07-22T01:58:34;21.33;;;18.88;;
31224;SDS011;17847;31.524;74.366;2023-07-22T02:01:03;24.83;;;21.95;;
31224;SDS011;17847;31.524;74.366;2023-07-22T02:03:33;25.48;;;21.02;;
31224;SDS011;17847;31.524;74.366;2023-07-22T02:06:03;23.70;;;21.08;;
31224;SDS011;17847;31.524;74.366;2023-07-22T02:08:33;27.35;;;22.65;;
31224;SDS011;17847;31.524;74.366;2023-07-22T02:11:05;29.15;;;22.98;;
31224;SDS011;17847;31.524;74.366;2023-07-22T02:13:37;27.63;;;23.40;;
31224;SDS011;17847;31.524;74.366;2023-07-22T02:16:06;28.20;;;23.05;;
31224;SDS011;17847;31.524;74.366;2023-07-22T02:18:40;30.85;;;25.15;;
31224;SDS011;17847;31.524;74.366;2023-07-22T02:21:10;32.63;;;24.33;;
31224;SDS011;17847;31.524;74.366;2023-07-22T02:23:39;37.88;;;25.60;;
31224;SDS011;17847;31.524;74.366;2023-07-22T02:26:09;28.83;;;22.40;;
31224;SDS011;17847;31.524;74.366;2023-07-22T02:28:38;26.27;;;21.67;;
31224;SDS011;17847;31.524;74.366;2023-07-22T02:31:08;26.20;;;22.02;;
31224;SDS011;17847;31.524;74.366;2023-07-22T02:33:39;27.20;;;20.88;;
31224;SDS011;17847;31.524;74.366;2023-07-22T02:36:09;26.58;;;20.27;;
31224;SDS011;17847;31.524;74.366;2023-07-22T02:38:40;28.23;;;22.50;;
31224;SDS011;17847;31.524;74.366;2023-07-22T02:41:12;31.30;;;24.77;;
31224;SDS011;17847;31.524;74.366;2023-07-22T02:43:42;32.17;;;26.60;;
31224;SDS011;17847;31.524;74.366;2023-07-22T02:46:12;33.45;;;28.08;;
31224;SDS011;17847;31.524;74.366;2023-07-22T02:48:41;38.55;;;30.00;;
31224;SDS011;17847;31.524;74.366;2023-07-22T02:51:10;39.60;;;30.77;;
31224;SDS011;17847;31.524;74.366;2023-07-22T02:53:40;44.72;;;33.28;;
31224;SDS011;17847;31.524;74.366;2023-07-22T02:56:09;42.72;;;30.85;;
31224;SDS011;17847;31.524;74.366;2023-07-22T02:58:40;45.22;;;31.38;;
31224;SDS011;17847;31.524;74.366;2023-07-22T03:01:10;41.30;;;30.70;;
31224;SDS011;17847;31.524;74.366;2023-07-22T03:03:40;37.45;;;30.65;;
31224;SDS011;17847;31.524;74.366;2023-07-22T03:06:09;37.42;;;30.27;;
31224;SDS011;17847;31.524;74.366;2023-07-22T03:08:39;34.90;;;29.60;;
31224;SDS011;17847;31.524;74.366;2023-07-22T03:11:08;32.30;;;27.58;;
31224;SDS011;17847;31.524;74.366;2023-07-22T03:13:38;28.77;;;25.58;;
31224;SDS011;17847;31.524;74.366;2023-07-22T03:16:07;30.73;;;22.80;;
31224;SDS011;17847;31.524;74.366;2023-07-22T03:18:38;22.70;;;18.85;;
31224;SDS011;17847;31.524;74.366;2023-07-22T03:21:08;20.35;;;15.00;;
31224;SDS011;17847;31.524;74.366;2023-07-22T03:23:37;19.77;;;14.55;;
31224;SDS011;17847;31.524;74.366;2023-07-22T03:26:08;12.55;;;9.68;;
31224;SDS011;17847;31.524;74.366;2023-07-22T03:28:37;18.95;;;10.98;;
31224;SDS011;17847;31.524;74.366;2023-07-22T03:31:10;17.25;;;8.98;;
31224;SDS011;17847;31.524;74.366;2023-07-22T03:33:39;12.27;;;6.55;;
31224;SDS011;17847;31.524;74.366;2023-07-22T03:36:11;8.23;;;4.82;;
31224;SDS011;17847;31.524;74.366;2023-07-22T03:38:41;8.05;;;3.90;;
31224;SDS011;17847;31.524;74.366;2023-07-22T03:41:10;5.90;;;3.78;;
31224;SDS011;17847;31.524;74.366;2023-07-22T03:43:40;6.72;;;3.70;;
31224;SDS011;17847;31.524;74.366;2023-07-22T03:46:10;6.20;;;4.13;;
31224;SDS011;17847;31.524;74.366;2023-07-22T03:48:39;5.90;;;3.95;;
31224;SDS011;17847;31.524;74.366;2023-07-22T03:51:08;6.25;;;4.22;;
31224;SDS011;17847;31.524;74.366;2023-07-22T03:53:47;11.05;;;5.32;;
31224;SDS011;17847;31.524;74.366;2023-07-22T03:56:16;10.40;;;6.07;;
31224;SDS011;17847;31.524;74.366;2023-07-22T03:58:45;12.70;;;6.28;;
31224;SDS011;17847;31.524;74.366;2023-07-22T04:01:19;9.32;;;5.88;;
31224;SDS011;17847;31.524;74.366;2023-07-22T04:03:49;5.90;;;3.60;;
31224;SDS011;17847;31.524;74.366;2023-07-22T04:06:19;7.32;;;4.20;;
31224;SDS011;17847;31.524;74.366;2023-07-22T04:08:48;5.40;;;3.70;;
31224;SDS011;17847;31.524;74.366;2023-07-22T04:11:17;6.20;;;3.50;;
31224;SDS011;17847;31.524;74.366;2023-07-22T04:13:48;8.25;;;4.05;;
31224;SDS011;17847;31.524;74.366;2023-07-22T04:16:18;13.32;;;4.55;;
31224;SDS011;17847;31.524;74.366;2023-07-22T04:18:47;4.68;;;2.70;;
31224;SDS011;17847;31.524;74.366;2023-07-22T04:21:16;5.72;;;2.53;;
31224;SDS011;17847;31.524;74.366;2023-07-22T04:23:46;4.93;;;3.20;;
31224;SDS011;17847;31.524;74.366;2023-07-22T04:26:15;9.30;;;3.97;;
31224;SDS011;17847;31.524;74.366;2023-07-22T04:28:46;8.52;;;4.22;;
31224;SDS011;17847;31.524;74.366;2023-07-22T04:31:15;4.28;;;3.10;;
31224;SDS011;17847;31.524;74.366;2023-07-22T04:33:44;8.98;;;4.00;;
31224;SDS011;17847;31.524;74.366;2023-07-22T04:36:14;6.55;;;3.85;;
31224;SDS011;17847;31.524;74.366;2023-07-22T04:38:43;5.28;;;2.75;;
31224;SDS011;17847;31.524;74.366;2023-07-22T04:41:13;7.82;;;3.13;;
31224;SDS011;17847;31.524;74.366;2023-07-22T04:43:43;5.18;;;2.60;;
31224;SDS011;17847;31.524;74.366;2023-07-22T04:46:13;9.77;;;3.30;;
31224;SDS011;17847;31.524;74.366;2023-07-22T04:48:43;9.73;;;2.85;;
31224;SDS011;17847;31.524;74.366;2023-07-22T04:51:14;3.88;;;1.83;;
31224;SDS011;17847;31.524;74.366;2023-07-22T04:53:43;3.20;;;2.00;;
31224;SDS011;17847;31.524;74.366;2023-07-22T04:56:13;3.92;;;2.15;;
31224;SDS011;17847;31.524;74.366;2023-07-22T04:58:42;4.30;;;2.05;;
31224;SDS011;17847;31.524;74.366;2023-07-22T05:01:12;4.15;;;1.80;;
31224;SDS011;17847;31.524;74.366;2023-07-22T05:03:41;4.22;;;2.20;;
31224;SDS011;17847;31.524;74.366;2023-07-22T05:06:11;4.68;;;2.58;;
31224;SDS011;17847;31.524;74.366;2023-07-22T05:08:40;5.90;;;3.80;;
31224;SDS011;17847;31.524;74.366;2023-07-22T05:11:11;10.02;;;4.75;;
31224;SDS011;17847;31.524;74.366;2023-07-22T05:13:40;10.15;;;5.80;;
31224;SDS011;17847;31.524;74.366;2023-07-22T05:16:10;7.43;;;5.13;;
31224;SDS011;17847;31.524;74.366;2023-07-22T05:18:39;5.40;;;4.38;;
31224;SDS011;17847;31.524;74.366;2023-07-22T05:21:08;10.65;;;4.90;;
31224;SDS011;17847;31.524;74.366;2023-07-22T05:23:37;7.30;;;5.22;;
31224;SDS011;17847;31.524;74.366;2023-07-22T05:26:07;6.75;;;4.90;;
31224;SDS011;17847;31.524;74.366;2023-07-22T05:28:36;4.82;;;4.00;;
31224;SDS011;17847;31.524;74.366;2023-07-22T05:31:06;5.97;;;4.10;;
31224;SDS011;17847;31.524;74.366;2023-07-22T05:33:35;6.40;;;4.30;;
31224;SDS011;17847;31.524;74.366;2023-07-22T05:36:10;6.50;;;4.22;;
31224;SDS011;17847;31.524;74.366;2023-07-22T05:38:40;10.13;;;4.10;;
31224;SDS011;17847;31.524;74.366;2023-07-22T05:41:10;9.13;;;4.13;;
31224;SDS011;17847;31.524;74.366;2023-07-22T05:43:39;8.18;;;3.90;;
31224;SDS011;17847;31.524;74.366;2023-07-22T05:46:10;5.57;;;4.50;;
31224;SDS011;17847;31.524;74.366;2023-07-22T05:48:40;5.25;;;3.72;;
31224;SDS011;17847;31.524;74.366;2023-07-22T05:51:09;6.40;;;4.30;;
31224;SDS011;17847;31.524;74.366;2023-07-22T05:53:39;5.22;;;4.40;;
31224;SDS011;17847;31.524;74.366;2023-07-22T05:56:08;6.90;;;4.43;;
31224;SDS011;17847;31.524;74.366;2023-07-22T05:58:39;5.55;;;4.32;;
31224;SDS011;17847;31.524;74.366;2023-07-22T06:01:08;5.53;;;4.00;;
31224;SDS011;17847;31.524;74.366;2023-07-22T06:06:12;5.63;;;4.82;;
31224;SDS011;17847;31.524;74.366;2023-07-22T06:08:41;5.30;;;4.57;;
31224;SDS011;17847;31.524;74.366;2023-07-22T06:11:11;7.03;;;5.10;;
31224;SDS011;17847;31.524;74.366;2023-07-22T06:13:40;6.22;;;5.03;;
31224;SDS011;17847;31.524;74.366;2023-07-22T06:16:10;7.70;;;5.88;;
31224;SDS011;17847;31.524;74.366;2023-07-22T06:18:40;8.70;;;6.40;;
31224;SDS011;17847;31.524;74.366;2023-07-22T06:21:09;7.88;;;6.07;;
31224;SDS011;17847;31.524;74.366;2023-07-22T06:23:39;8.85;;;6.00;;
31224;SDS011;17847;31.524;74.366;2023-07-22T06:26:09;8.77;;;6.63;;
31224;SDS011;17847;31.524;74.366;2023-07-22T06:28:38;7.45;;;5.90;;
31224;SDS011;17847;31.524;74.366;2023-07-22T06:31:08;7.55;;;6.18;;
31224;SDS011;17847;31.524;74.366;2023-07-22T06:33:37;6.82;;;5.65;;
31224;SDS011;17847;31.524;74.366;2023-07-22T06:36:07;8.30;;;6.07;;
31224;SDS011;17847;31.524;74.366;2023-07-22T06:38:36;10.32;;;6.28;;
31224;SDS011;17847;31.524;74.366;2023-07-22T06:41:06;8.25;;;5.75;;
31224;SDS011;17847;31.524;74.366;2023-07-22T06:43:35;8.90;;;5.85;;
31224;SDS011;17847;31.524;74.366;2023-07-22T06:46:04;7.60;;;6.20;;
31224;SDS011;17847;31.524;74.366;2023-07-22T06:48:34;7.95;;;6.50;;
31224;SDS011;17847;31.524;74.366;2023-07-22T06:51:04;8.02;;;6.22;;
31224;SDS011;17847;31.524;74.366;2023-07-22T06:53:35;7.53;;;6.28;;
31224;SDS011;17847;31.524;74.366;2023-07-22T06:56:06;8.65;;;7.00;;
31224;SDS011;17847;31.524;74.366;2023-07-22T06:58:35;11.50;;;9.00;;
31224;SDS011;17847;31.524;74.366;2023-07-22T07:01:05;11.88;;;9.13;;
31224;SDS011;17847;31.524;74.366;2023-07-22T07:03:34;8.70;;;7.60;;
31224;SDS011;17847;31.524;74.366;2023-07-22T07:06:04;8.35;;;7.45;;
31224;SDS011;17847;31.524;74.366;2023-07-22T07:08:34;8.07;;;7.28;;
31224;SDS011;17847;31.524;74.366;2023-07-22T07:11:06;8.15;;;6.80;;
31224;SDS011;17847;31.524;74.366;2023-07-22T07:13:35;6.45;;;5.70;;
31224;SDS011;17847;31.524;74.366;2023-07-22T07:16:24;5.43;;;4.93;;
31224;SDS011;17847;31.524;74.366;2023-07-22T07:18:55;5.32;;;4.05;;
31224;SDS011;17847;31.524;74.366;2023-07-22T07:21:25;4.55;;;3.53;;
31224;SDS011;17847;31.524;74.366;2023-07-22T07:23:55;3.10;;;2.72;;
31224;SDS011;17847;31.524;74.366;2023-07-22T07:26:25;3.35;;;3.05;;
31224;SDS011;17847;31.524;74.366;2023-07-22T07:28:55;2.80;;;2.60;;
31224;SDS011;17847;31.524;74.366;2023-07-22T07:31:25;2.95;;;2.63;;
31224;SDS011;17847;31.524;74.366;2023-07-22T07:33:59;3.25;;;2.95;;
31224;SDS011;17847;31.524;74.366;2023-07-22T07:36:29;3.55;;;3.25;;
31224;SDS011;17847;31.524;74.366;2023-07-22T07:38:58;3.85;;;3.03;;
31224;SDS011;17847;31.524;74.366;2023-07-22T07:41:28;3.58;;;2.70;;
31224;SDS011;17847;31.524;74.366;2023-07-22T07:43:57;2.28;;;2.08;;
31224;SDS011;17847;31.524;74.366;2023-07-22T07:46:29;3.60;;;2.55;;
31224;SDS011;17847;31.524;74.366;2023-07-22T07:48:59;2.40;;;2.20;;
31224;SDS011;17847;31.524;74.366;2023-07-22T07:51:30;2.55;;;2.03;;
31224;SDS011;17847;31.524;74.366;2023-07-22T07:54:00;1.90;;;1.80;;
31224;SDS011;17847;31.524;74.366;2023-07-22T07:56:32;2.35;;;2.15;;
31224;SDS011;17847;31.524;74.366;2023-07-22T07:59:01;1.95;;;1.70;;
31224;SDS011;17847;31.524;74.366;2023-07-22T08:01:31;2.42;;;2.00;;
31224;SDS011;17847;31.524;74.366;2023-07-22T08:04:01;2.00;;;1.80;;
31224;SDS011;17847;31.524;74.366;2023-07-22T08:06:30;2.15;;;1.73;;
31224;SDS011;17847;31.524;74.366;2023-07-22T08:09:03;1.92;;;1.63;;
31224;SDS011;17847;31.524;74.366;2023-07-22T08:11:34;1.80;;;1.48;;
31224;SDS011;17847;31.524;74.366;2023-07-22T08:14:03;2.55;;;1.70;;
31224;SDS011;17847;31.524;74.366;2023-07-22T08:16:34;3.85;;;1.67;;
31224;SDS011;17847;31.524;74.366;2023-07-22T08:19:03;1.40;;;1.30;;
31224;SDS011;17847;31.524;74.366;2023-07-22T08:21:33;3.00;;;1.30;;
31224;SDS011;17847;31.524;74.366;2023-07-22T08:24:02;2.25;;;1.60;;
31224;SDS011;17847;31.524;74.366;2023-07-22T08:26:32;1.52;;;1.30;;
31224;SDS011;17847;31.524;74.366;2023-07-22T08:29:02;1.70;;;1.45;;
31224;SDS011;17847;31.524;74.366;2023-07-22T08:31:32;1.25;;;1.10;;
31224;SDS011;17847;31.524;74.366;2023-07-22T08:34:01;1.13;;;1.00;;
31224;SDS011;17847;31.524;74.366;2023-07-22T08:36:31;1.17;;;1.00;;
31224;SDS011;17847;31.524;74.366;2023-07-22T08:39:00;0.88;;;0.80;;
31224;SDS011;17847;31.524;74.366;2023-07-22T08:41:29;1.65;;;0.90;;
31224;SDS011;17847;31.524;74.366;2023-07-22T08:44:00;1.02;;;0.90;;
31224;SDS011;17847;31.524;74.366;2023-07-22T08:46:32;1.35;;;1.15;;
31224;SDS011;17847;31.524;74.366;2023-07-22T08:49:02;2.03;;;1.55;;
31224;SDS011;17847;31.524;74.366;2023-07-22T08:51:36;2.15;;;1.70;;
31224;SDS011;17847;31.524;74.366;2023-07-22T08:54:08;2.42;;;2.08;;
31224;SDS011;17847;31.524;74.366;2023-07-22T08:56:39;4.45;;;3.00;;
31224;SDS011;17847;31.524;74.366;2023-07-22T08:59:08;4.72;;;3.63;;
31224;SDS011;17847;31.524;74.366;2023-07-22T09:01:39;6.32;;;4.68;;
31224;SDS011;17847;31.524;74.366;2023-07-22T09:04:08;5.95;;;5.03;;
31224;SDS011;17847;31.524;74.366;2023-07-22T09:06:38;6.80;;;5.30;;
31224;SDS011;17847;31.524;74.366;2023-07-22T09:09:08;8.65;;;5.63;;
31224;SDS011;17847;31.524;74.366;2023-07-22T09:11:40;7.82;;;5.75;;
31224;SDS011;17847;31.524;74.366;2023-07-22T09:14:10;8.55;;;6.22;;
31224;SDS011;17847;31.524;74.366;2023-07-22T09:16:57;8.00;;;5.85;;
31224;SDS011;17847;31.524;74.366;2023-07-22T09:19:27;5.88;;;4.93;;
31224;SDS011;17847;31.524;74.366;2023-07-22T09:21:59;7.22;;;4.57;;
31224;SDS011;17847;31.524;74.366;2023-07-22T09:24:28;5.03;;;4.28;;
31224;SDS011;17847;31.524;74.366;2023-07-22T09:27:00;4.57;;;3.20;;
31224;SDS011;17847;31.524;74.366;2023-07-22T09:29:36;2.78;;;2.50;;
31224;SDS011;17847;31.524;74.366;2023-07-22T09:32:09;2.25;;;1.80;;
31224;SDS011;17847;31.524;74.366;2023-07-22T09:34:41;3.28;;;1.90;;
31224;SDS011;17847;31.524;74.366;2023-07-22T09:37:35;2.70;;;2.00;;
31224;SDS011;17847;31.524;74.366;2023-07-22T09:40:26;2.75;;;1.92;;
31224;SDS011;17847;31.524;74.366;2023-07-22T09:42:56;3.35;;;2.83;;
31224;SDS011;17847;31.524;74.366;2023-07-22T09:45:33;2.78;;;2.53;;
31224;SDS011;17847;31.524;74.366;2023-07-22T09:48:06;4.68;;;3.70;;
31224;SDS011;17847;31.524;74.366;2023-07-22T09:50:39;4.70;;;3.92;;
31224;SDS011;17847;31.524;74.366;2023-07-22T09:53:08;5.57;;;4.38;;
31224;SDS011;17847;31.524;74.366;2023-07-22T09:55:44;5.50;;;4.22;;
31224;SDS011;17847;31.524;74.366;2023-07-22T09:58:13;4.80;;;3.85;;
31224;SDS011;17847;31.524;74.366;2023-07-22T10:00:47;3.92;;;3.17;;
31224;SDS011;17847;31.524;74.366;2023-07-22T10:03:17;4.22;;;3.40;;
31224;SDS011;17847;31.524;74.366;2023-07-22T10:05:48;2.75;;;2.40;;
31224;SDS011;17847;31.524;74.366;2023-07-22T10:08:19;2.22;;;2.00;;
31224;SDS011;17847;31.524;74.366;2023-07-22T10:10:53;2.53;;;1.92;;
31224;SDS011;17847;31.524;74.366;2023-07-22T10:13:25;1.93;;;1.77;;
31224;SDS011;17847;31.524;74.366;2023-07-22T10:15:56;2.45;;;2.08;;
31224;SDS011;17847;31.524;74.366;2023-07-22T10:18:28;2.28;;;2.10;;
31224;SDS011;17847;31.524;74.366;2023-07-22T10:20:59;2.97;;;2.40;;
31224;SDS011;17847;31.524;74.366;2023-07-22T10:23:30;2.50;;;2.30;;
31224;SDS011;17847;31.524;74.366;2023-07-22T10:26:00;2.53;;;2.33;;
31224;SDS011;17847;31.524;74.366;2023-07-22T10:28:31;2.70;;;2.50;;
31224;SDS011;17847;31.524;74.366;2023-07-22T10:31:01;2.72;;;2.53;;
31224;SDS011;17847;31.524;74.366;2023-07-22T10:33:31;3.70;;;2.65;;
31224;SDS011;17847;31.524;74.366;2023-07-22T10:36:08;2.58;;;2.38;;
31224;SDS011;17847;31.524;74.366;2023-07-22T10:38:41;3.10;;;2.78;;
31224;SDS011;17847;31.524;74.366;2023-07-22T10:41:15;3.30;;;3.00;;
31224;SDS011;17847;31.524;74.366;2023-07-22T10:43:55;3.22;;;2.92;;
31224;SDS011;17847;31.524;74.366;2023-07-22T10:46:37;5.13;;;3.80;;
31224;SDS011;17847;31.524;74.366;2023-07-22T10:49:15;4.55;;;4.13;;
31224;SDS011;17847;31.524;74.366;2023-07-22T10:51:49;4.13;;;3.45;;
31224;SDS011;17847;31.524;74.366;2023-07-22T10:54:32;3.40;;;3.10;;
31224;SDS011;17847;31.524;74.366;2023-07-22T10:57:22;4.47;;;3.50;;
31224;SDS011;17847;31.524;74.366;2023-07-22T10:59:54;4.28;;;3.45;;
31224;SDS011;17847;31.524;74.366;2023-07-22T11:02:26;3.85;;;3.45;;
31224;SDS011;17847;31.524;74.366;2023-07-22T11:04:59;3.58;;;3.28;;
31224;SDS011;17847;31.524;74.366;2023-07-22T11:07:34;3.67;;;3.28;;
31224;SDS011;17847;31.524;74.366;2023-07-22T11:10:15;3.30;;;3.10;;
31224;SDS011;17847;31.524;74.366;2023-07-22T11:12:47;3.78;;;3.47;;
31224;SDS011;17847;31.524;74.366;2023-07-22T11:15:17;4.97;;;4.47;;
31224;SDS011;17847;31.524;74.366;2023-07-22T11:17:47;4.20;;;3.80;;
31224;SDS011;17847;31.524;74.366;2023-07-22T11:20:17;4.80;;;3.85;;
31224;SDS011;17847;31.524;74.366;2023-07-22T11:22:51;4.20;;;3.90;;
31224;SDS011;17847;31.524;74.366;2023-07-22T11:25:20;4.22;;;3.83;;
31224;SDS011;17847;31.524;74.366;2023-07-22T11:27:50;5.18;;;3.88;;
31224;SDS011;17847;31.524;74.366;2023-07-22T11:30:19;4.13;;;3.83;;
31224;SDS011;17847;31.524;74.366;2023-07-22T11:32:52;4.20;;;3.90;;
31224;SDS011;17847;31.524;74.366;2023-07-22T11:35:21;4.40;;;4.00;;
31224;SDS011;17847;31.524;74.366;2023-07-22T11:37:59;4.32;;;3.90;;
31224;SDS011;17847;31.524;74.366;2023-07-22T11:40:34;4.40;;;4.00;;
31224;SDS011;17847;31.524;74.366;2023-07-22T11:45:32;4.40;;;4.00;;
31224;SDS011;17847;31.524;74.366;2023-07-22T11:48:08;6.38;;;4.13;;
31224;SDS011;17847;31.524;74.366;2023-07-22T11:50:38;4.50;;;4.10;;
31224;SDS011;17847;31.524;74.366;2023-07-22T11:53:07;4.70;;;4.30;;
31224;SDS011;17847;31.524;74.366;2023-07-22T11:55:38;4.90;;;4.50;;
31224;SDS011;17847;31.524;74.366;2023-07-22T11:58:09;4.85;;;4.45;;
31224;SDS011;17847;31.524;74.366;2023-07-22T12:00:41;4.90;;;4.50;;
31224;SDS011;17847;31.524;74.366;2023-07-22T12:03:30;5.13;;;4.63;;
31224;SDS011;17847;31.524;74.366;2023-07-22T12:06:03;6.45;;;4.88;;
31224;SDS011;17847;31.524;74.366;2023-07-22T12:08:35;6.80;;;5.53;;
31224;SDS011;17847;31.524;74.366;2023-07-22T12:11:06;5.30;;;4.82;;
31224;SDS011;17847;31.524;74.366;2023-07-22T12:13:38;5.60;;;5.10;;
31224;SDS011;17847;31.524;74.366;2023-07-22T12:16:07;5.13;;;4.72;;
31224;SDS011;17847;31.524;74.366;2023-07-22T12:18:43;6.03;;;5.30;;
31224;SDS011;17847;31.524;74.366;2023-07-22T12:21:14;6.72;;;5.63;;
31224;SDS011;17847;31.524;74.366;2023-07-22T12:23:43;6.30;;;5.70;;
31224;SDS011;17847;31.524;74.366;2023-07-22T12:26:14;7.35;;;6.38;;
31224;SDS011;17847;31.524;74.366;2023-07-22T12:28:44;7.63;;;6.88;;
31224;SDS011;17847;31.524;74.366;2023-07-22T12:31:13;8.07;;;7.25;;
31224;SDS011;17847;31.524;74.366;2023-07-22T12:33:42;6.95;;;6.25;;
31224;SDS011;17847;31.524;74.366;2023-07-22T12:36:12;7.63;;;5.60;;
31224;SDS011;17847;31.524;74.366;2023-07-22T12:38:41;5.35;;;4.88;;
31224;SDS011;17847;31.524;74.366;2023-07-22T12:41:11;5.30;;;4.80;;
31224;SDS011;17847;31.524;74.366;2023-07-22T12:43:42;6.13;;;5.63;;
31224;SDS011;17847;31.524;74.366;2023-07-22T12:46:13;7.00;;;6.40;;
31224;SDS011;17847;31.524;74.366;2023-07-22T12:48:42;6.90;;;6.15;;
31224;SDS011;17847;31.524;74.366;2023-07-22T12:51:12;6.20;;;5.63;;
31224;SDS011;17847;31.524;74.366;2023-07-22T12:53:42;7.07;;;6.38;;
31224;SDS011;17847;31.524;74.366;2023-07-22T12:56:11;7.93;;;7.13;;
31224;SDS011;17847;31.524;74.366;2023-07-22T12:58:41;6.78;;;6.18;;
31224;SDS011;17847;31.524;74.366;2023-07-22T13:01:10;6.43;;;5.85;;
31224;SDS011;17847;31.524;74.366;2023-07-22T13:03:41;6.65;;;6.07;;
31224;SDS011;17847;31.524;74.366;2023-07-22T13:06:10;6.65;;;6.05;;
31224;SDS011;17847;31.524;74.366;2023-07-22T13:08:40;6.45;;;5.85;;
31224;SDS011;17847;31.524;74.366;2023-07-22T13:11:09;7.70;;;5.72;;
31224;SDS011;17847;31.524;74.366;2023-07-22T13:13:39;5.75;;;5.25;;
31224;SDS011;17847;31.524;74.366;2023-07-22T13:16:08;6.47;;;5.38;;
31224;SDS011;17847;31.524;74.366;2023-07-22T13:18:38;5.15;;;4.75;;
31224;SDS011;17847;31.524;74.366;2023-07-22T13:21:07;5.60;;;5.10;;
31224;SDS011;17847;31.524;74.366;2023-07-22T13:23:37;5.20;;;4.78;;
31224;SDS011;17847;31.524;74.366;2023-07-22T13:26:06;5.38;;;4.88;;
31224;SDS011;17847;31.524;74.366;2023-07-22T13:28:36;7.07;;;4.90;;
31224;SDS011;17847;31.524;74.366;2023-07-22T13:31:05;6.45;;;5.38;;
31224;SDS011;17847;31.524;74.366;2023-07-22T13:33:35;5.80;;;5.30;;
31224;SDS011;17847;31.524;74.366;2023-07-22T13:36:06;7.50;;;6.20;;
31224;SDS011;17847;31.524;74.366;2023-07-22T13:38:37;6.63;;;6.03;;
31224;SDS011;17847;31.524;74.366;2023-07-22T13:41:07;6.65;;;5.68;;
31224;SDS011;17847;31.524;74.366;2023-07-22T13:43:36;6.63;;;6.03;;
31224;SDS011;17847;31.524;74.366;2023-07-22T13:46:06;7.35;;;6.75;;
31224;SDS011;17847;31.524;74.366;2023-07-22T13:48:37;7.88;;;7.18;;
31224;SDS011;17847;31.524;74.366;2023-07-22T13:51:06;8.13;;;7.32;;
31224;SDS011;17847;31.524;74.366;2023-07-22T13:53:36;8.07;;;7.32;;
31224;SDS011;17847;31.524;74.366;2023-07-22T13:56:05;8.55;;;7.75;;
31224;SDS011;17847;31.524;74.366;2023-07-22T13:58:35;8.35;;;7.63;;
31224;SDS011;17847;31.524;74.366;2023-07-22T14:01:14;9.02;;;7.68;;
31224;SDS011;17847;31.524;74.366;2023-07-22T14:03:44;8.82;;;7.78;;
31224;SDS011;17847;31.524;74.366;2023-07-22T14:06:14;8.55;;;7.75;;
31224;SDS011;17847;31.524;74.366;2023-07-22T14:08:43;8.85;;;7.57;;
31224;SDS011;17847;31.524;74.366;2023-07-22T14:11:13;9.98;;;7.57;;
31224;SDS011;17847;31.524;74.366;2023-07-22T14:13:43;9.45;;;8.55;;
31224;SDS011;17847;31.524;74.366;2023-07-22T14:16:12;8.60;;;7.00;;
31224;SDS011;17847;31.524;74.366;2023-07-22T14:18:50;8.27;;;7.57;;
31224;SDS011;17847;31.524;74.366;2023-07-22T14:21:21;9.35;;;7.65;;
31224;SDS011;17847;31.524;74.366;2023-07-22T14:23:52;8.02;;;7.22;;
31224;SDS011;17847;31.524;74.366;2023-07-22T14:26:21;8.18;;;7.38;;
31224;SDS011;17847;31.524;74.366;2023-07-22T14:28:51;7.35;;;6.75;;
31224;SDS011;17847;31.524;74.366;2023-07-22T14:31:22;8.10;;;7.28;;
31224;SDS011;17847;31.524;74.366;2023-07-22T14:33:52;8.00;;;7.30;;
31224;SDS011;17847;31.524;74.366;2023-07-22T14:36:22;8.80;;;7.97;;
31224;SDS011;17847;31.524;74.366;2023-07-22T14:38:52;8.32;;;7.63;;
31224;SDS011;17847;31.524;74.366;2023-07-22T14:41:22;10.05;;;7.88;;
31224;SDS011;17847;31.524;74.366;2023-07-22T14:43:53;9.15;;;8.18;;
31224;SDS011;17847;31.524;74.366;2023-07-22T14:46:22;9.20;;;8.30;;
31224;SDS011;17847;31.524;74.366;2023-07-22T14:48:52;11.40;;;8.98;;
31224;SDS011;17847;31.524;74.366;2023-07-22T14:51:22;12.20;;;9.63;;
31224;SDS011;17847;31.524;74.366;2023-07-22T14:53:52;10.00;;;9.00;;
31224;SDS011;17847;31.524;74.366;2023-07-22T14:56:21;10.32;;;9.30;;
31224;SDS011;17847;31.524;74.366;2023-07-22T14:58:51;10.20;;;9.20;;